Time;durP1;ratioP1;P1;durP2;ratioP2;P2;SDS_P1;SDS_P2;PMS_P1;PMS_P2;Temp;Humidity;BMP_temperature;BMP_pressure;BME280_temperature;BME280_humidity;BME280_pressure;Samples;Min_cycle;Max_cycle;Signal;HPM_P1;HPM_P2
2021/12/05 00:25:19;;;;;;;0.60;0.60;;;;;4.50;94772.00;;;;8346934;28;20627;-75
2021/12/05 00:29:31;;;;;;;1.30;1.07;;;;;4.50;94774.00;;;;8352280;28;20887;-75
2021/12/05 00:33:53;;;;;;;1.13;0.60;;;;;4.60;94780.00;;;;8353052;28;20255;-75
2021/12/05 01:00:05;;;;;;;0.40;0.40;;;;;4.40;94796.00;;;;8349618;28;20311;-77
2021/12/05 01:04:35;;;;;;;0.40;0.40;;;;;4.40;94805.00;;;;8351720;28;20258;-77
2021/12/05 01:13:30;;;;;;;0.60;0.60;;;;;4.30;94821.00;;;;8344430;28;20259;-77
2021/12/05 01:17:42;;;;;;;0.40;0.40;;;;;4.30;94820.00;;;;8335068;28;20246;-76
2021/12/05 01:21:48;;;;;;;0.50;0.50;;;;;4.30;94831.00;;;;8343956;28;20299;-77
2021/12/05 01:25:54;;;;;;;0.80;0.80;;;;;4.30;94847.00;;;;8345133;28;20662;-77
2021/12/05 01:30:03;;;;;;;0.40;0.40;;;;;4.20;94846.00;;;;8343228;28;20236;-76
2021/12/05 01:34:19;;;;;;;0.40;0.40;;;;;4.20;94859.00;;;;8351650;28;20591;-76
2021/12/05 01:38:35;;;;;;;0.40;0.40;;;;;4.10;94862.00;;;;8340959;28;20222;-75
2021/12/05 01:47:34;;;;;;;0.40;0.40;;;;;4.10;94870.00;;;;8301210;28;20340;-74
2021/12/05 01:52:09;;;;;;;0.70;0.70;;;;;4.00;94873.00;;;;8342993;28;20282;-75
2021/12/05 01:56:39;;;;;;;0.70;0.70;;;;;3.90;94877.00;;;;8349850;28;20337;-74
2021/12/05 02:01:10;;;;;;;0.67;0.67;;;;;3.90;94870.00;;;;8345060;28;20250;-74
2021/12/05 02:09:52;;;;;;;0.40;0.40;;;;;3.80;94861.00;;;;8344901;28;20252;-73
2021/12/05 02:36:22;;;;;;;0.40;0.40;;;;;3.60;94883.00;;;;8346864;28;20361;-76
2021/12/05 02:40:34;;;;;;;0.40;0.40;;;;;3.50;94867.00;;;;8344886;28;21404;-75
2021/12/05 02:44:38;;;;;;;2.00;0.67;;;;;3.50;94874.00;;;;8347310;28;20259;-76
2021/12/05 02:48:43;;;;;;;0.40;0.40;;;;;3.40;94872.00;;;;8338246;28;21511;-75
2021/12/05 02:52:46;;;;;;;0.93;0.93;;;;;3.40;94864.00;;;;8339683;28;20229;-75
2021/12/05 02:56:52;;;;;;;0.50;0.50;;;;;3.30;94872.00;;;;8357271;28;20247;-75
2021/12/05 03:01:09;;;;;;;0.60;0.60;;;;;3.30;94868.00;;;;8368386;22;20272;-74
2021/12/05 03:05:16;;;;;;;0.53;0.53;;;;;3.30;94866.00;;;;8391077;22;20857;-74
2021/12/05 03:09:20;;;;;;;0.60;0.60;;;;;3.20;94865.00;;;;8367938;28;20288;-74
2021/12/05 03:13:25;;;;;;;0.57;0.57;;;;;3.20;94882.00;;;;8374952;28;20256;-74
2021/12/05 03:17:29;;;;;;;0.53;0.53;;;;;3.20;94889.00;;;;8381387;28;20238;-74
2021/12/05 03:21:33;;;;;;;0.73;0.73;;;;;3.20;94893.00;;;;8371848;28;20690;-74
2021/12/05 03:25:37;;;;;;;0.50;0.50;;;;;3.20;94888.00;;;;8362219;28;20715;-73
2021/12/05 03:29:41;;;;;;;0.50;0.50;;;;;3.10;94897.00;;;;8369077;28;20339;-73
2021/12/05 03:33:44;;;;;;;0.43;0.43;;;;;3.10;94899.00;;;;8365274;28;20260;-73
2021/12/05 03:37:50;;;;;;;0.40;0.40;;;;;3.10;94901.00;;;;8364416;28;20971;-73
2021/12/05 03:41:54;;;;;;;0.50;0.50;;;;;3.10;94915.00;;;;8364124;28;20662;-73
2021/12/05 03:46:00;;;;;;;0.67;0.67;;;;;3.00;94909.00;;;;8367803;28;20241;-72
2021/12/05 03:50:05;;;;;;;0.50;0.50;;;;;3.00;94924.00;;;;8365974;28;20291;-74
2021/12/05 03:54:09;;;;;;;0.60;0.60;;;;;3.00;94914.00;;;;8372732;28;20246;-71
2021/12/05 03:58:13;;;;;;;0.70;0.70;;;;;2.90;94924.00;;;;8367049;28;20627;-73
2021/12/05 04:02:17;;;;;;;0.43;0.43;;;;;2.90;94925.00;;;;8365476;28;20230;-73
2021/12/05 04:06:22;;;;;;;0.80;0.80;;;;;2.80;94940.00;;;;8333175;28;20230;-73
2021/12/05 04:10:27;;;;;;;0.57;0.57;;;;;2.80;94945.00;;;;8330369;28;20241;-70
2021/12/05 04:14:34;;;;;;;0.50;0.50;;;;;2.80;94940.00;;;;8329167;28;20649;-72
2021/12/05 04:18:39;;;;;;;1.60;1.17;;;;;2.80;94934.00;;;;8331835;28;20231;-71
2021/12/05 04:22:44;;;;;;;0.40;0.40;;;;;2.80;94934.00;;;;8343124;28;20246;-71
2021/12/05 04:26:47;;;;;;;0.50;0.50;;;;;2.90;94934.00;;;;8342851;28;20236;-71
2021/12/05 04:30:51;;;;;;;0.50;0.50;;;;;3.00;94924.00;;;;8325566;28;20223;-71
2021/12/05 04:34:56;;;;;;;0.50;0.50;;;;;3.00;94927.00;;;;8335236;28;20242;-71
2021/12/05 04:38:59;;;;;;;0.40;0.40;;;;;3.00;94918.00;;;;8343820;28;20907;-71
2021/12/05 04:43:03;;;;;;;0.40;0.40;;;;;3.00;94922.00;;;;8329787;28;20264;-71
2021/12/05 04:47:06;;;;;;;0.63;0.63;;;;;2.90;94911.00;;;;8340144;28;20314;-70
2021/12/05 04:51:11;;;;;;;0.50;0.50;;;;;2.90;94915.00;;;;8331766;28;20319;-70
2021/12/05 04:55:15;;;;;;;1.10;0.60;;;;;2.90;94908.00;;;;8346258;28;20266;-70
2021/12/05 04:59:22;;;;;;;0.57;0.57;;;;;2.90;94912.00;;;;8329275;28;20818;-70
2021/12/05 05:03:26;;;;;;;0.40;0.40;;;;;2.90;94916.00;;;;8336542;28;20226;-71
2021/12/05 05:07:31;;;;;;;0.40;0.40;;;;;2.90;94916.00;;;;8332840;28;20234;-70
2021/12/05 05:11:34;;;;;;;0.50;0.50;;;;;2.90;94927.00;;;;8338719;28;20331;-70
2021/12/05 05:15:37;;;;;;;0.60;0.60;;;;;2.90;94938.00;;;;8342612;28;20302;-70
2021/12/05 05:19:45;;;;;;;0.40;0.40;;;;;3.00;94933.00;;;;8344968;28;20252;-69
2021/12/05 05:24:10;;;;;;;0.40;0.40;;;;;3.00;94942.00;;;;8348930;28;20233;-72
2021/12/05 05:28:44;;;;;;;0.80;0.80;;;;;3.10;94935.00;;;;8338883;28;20262;-71
2021/12/05 05:46:12;;;;;;;0.70;0.70;;;;;3.20;94953.00;;;;8341727;28;20766;-71
2021/12/05 05:50:16;;;;;;;0.50;0.50;;;;;3.20;94947.00;;;;8336555;28;20656;-71
2021/12/05 05:54:20;;;;;;;0.40;0.40;;;;;3.20;94935.00;;;;8338703;28;20263;-71
2021/12/05 05:58:28;;;;;;;1.47;0.70;;;;;3.20;94936.00;;;;8339324;28;20258;-72
2021/12/05 06:06:53;;;;;;;0.60;0.60;;;;;3.20;94951.00;;;;8338179;28;21103;-71
2021/12/05 06:10:58;;;;;;;0.40;0.40;;;;;3.20;94947.00;;;;8339384;28;20319;-71
2021/12/05 06:15:03;;;;;;;0.40;0.40;;;;;3.10;94953.00;;;;8345831;28;20292;-71
2021/12/05 06:19:06;;;;;;;0.40;0.40;;;;;3.10;94961.00;;;;8346614;28;20271;-71
2021/12/05 06:23:12;;;;;;;0.50;0.50;;;;;3.10;94954.00;;;;8335199;28;20221;-71
2021/12/05 06:27:15;;;;;;;7.80;1.13;;;;;3.10;94953.00;;;;8344133;28;20271;-71
2021/12/05 06:31:27;;;;;;;7.03;1.17;;;;;3.00;94953.00;;;;8345828;28;20784;-71
2021/12/05 06:40:13;;;;;;;0.40;0.40;;;;;2.80;94957.00;;;;8344131;28;20328;-71
2021/12/05 06:48:38;;;;;;;0.60;0.60;;;;;2.70;94966.00;;;;8347178;28;20925;-72
2021/12/05 06:52:43;;;;;;;0.50;0.50;;;;;2.60;94964.00;;;;8355437;28;20221;-70
2021/12/05 06:56:46;;;;;;;0.80;0.80;;;;;2.60;94972.00;;;;8350708;28;20257;-71
2021/12/05 07:00:49;;;;;;;0.43;0.43;;;;;2.60;94995.00;;;;8332188;28;20231;-72
2021/12/05 07:09:11;;;;;;;0.67;0.67;;;;;2.50;95010.00;;;;8336962;28;20685;-71
2021/12/05 07:21:47;;;;;;;0.90;0.90;;;;;2.60;95028.00;;;;8329445;28;20638;-69
2021/12/05 07:25:54;;;;;;;0.90;0.90;;;;;2.70;95028.00;;;;8341125;28;21479;-80
2021/12/05 07:43:05;;;;;;;1.80;0.80;;;;;2.70;95033.00;;;;8335710;28;20731;-72
2021/12/05 07:47:08;;;;;;;0.50;0.50;;;;;2.70;95042.00;;;;8332405;28;20255;-70
2021/12/05 07:51:21;;;;;;;1.03;1.03;;;;;2.80;95033.00;;;;8339356;28;20256;-72
2021/12/05 07:55:31;;;;;;;2.50;0.90;;;;;2.80;95020.00;;;;8340140;28;20889;-71
2021/12/05 07:59:47;;;;;;;0.50;0.50;;;;;2.90;95028.00;;;;8335779;28;20647;-71
2021/12/05 08:16:58;;;;;;;1.47;0.80;;;;;3.20;95034.00;;;;8335252;28;20321;-72
2021/12/05 08:21:02;;;;;;;0.60;0.60;;;;;3.20;95042.00;;;;8340574;28;20272;-72
2021/12/05 08:25:11;;;;;;;0.50;0.50;;;;;3.20;95053.00;;;;8341714;28;20258;-72
2021/12/05 08:29:20;;;;;;;0.77;0.77;;;;;3.30;95047.00;;;;8339361;28;20230;-72
2021/12/05 08:33:40;;;;;;;0.50;0.50;;;;;3.50;95056.00;;;;8333037;28;20259;-73
2021/12/05 10:10:14;;;;;;;4.13;2.33;;;;;5.90;95059.00;;;;8338790;28;20254;-70
2021/12/05 10:14:43;;;;;;;1.03;1.03;;;;;6.20;95070.00;;;;8336907;28;20254;-70
2021/12/05 10:36:31;;;;;;;0.63;0.63;;;;;6.20;95032.00;;;;8345950;28;20224;-72
2021/12/05 10:40:42;;;;;;;1.93;1.10;;;;;6.20;95031.00;;;;8334446;28;20629;-72
2021/12/05 10:44:46;;;;;;;0.60;0.60;;;;;6.30;95018.00;;;;8338523;28;20697;-73
2021/12/05 10:48:52;;;;;;;1.23;1.13;;;;;6.40;95020.00;;;;8335056;28;20270;-73
2021/12/05 10:53:17;;;;;;;0.63;0.63;;;;;6.40;95024.00;;;;8340815;28;20310;-73
2021/12/05 10:57:28;;;;;;;1.03;0.93;;;;;6.50;95027.00;;;;8342947;28;20220;-73
2021/12/05 11:01:36;;;;;;;0.70;0.70;;;;;6.50;95023.00;;;;8333950;28;20247;-72
2021/12/05 11:05:41;;;;;;;0.93;0.63;;;;;6.40;95031.00;;;;8342717;28;20758;-73
2021/12/05 11:09:47;;;;;;;0.90;0.90;;;;;6.40;95041.00;;;;8334908;28;20311;-72
2021/12/05 11:13:51;;;;;;;8.43;1.20;;;;;6.50;95040.00;;;;8329962;28;20705;-72
2021/12/05 11:17:56;;;;;;;0.53;0.53;;;;;6.30;95029.00;;;;8333022;28;20594;-72
2021/12/05 11:22:07;;;;;;;5.07;1.83;;;;;6.30;95033.00;;;;8332050;28;20282;-73
2021/12/05 11:26:17;;;;;;;0.90;0.90;;;;;6.30;95028.00;;;;8324139;28;20230;-72
2021/12/05 11:30:23;;;;;;;2.40;1.33;;;;;6.20;95025.00;;;;8331507;28;20229;-72
2021/12/05 11:34:29;;;;;;;1.13;1.13;;;;;6.00;95020.00;;;;8335144;28;21123;-72
2021/12/05 11:38:35;;;;;;;1.43;1.33;;;;;6.00;95029.00;;;;8333750;28;20629;-72
2021/12/05 11:42:51;;;;;;;2.53;1.50;;;;;5.90;95037.00;;;;8329731;28;20268;-72
2021/12/05 11:46:54;;;;;;;1.80;1.17;;;;;6.00;95043.00;;;;8339408;28;20255;-72
2021/12/05 11:50:59;;;;;;;0.80;0.80;;;;;6.00;95045.00;;;;8325669;28;20709;-72
2021/12/05 11:55:04;;;;;;;0.83;0.83;;;;;6.10;95045.00;;;;8332698;28;20375;-72
2021/12/05 11:59:13;;;;;;;1.00;1.00;;;;;6.20;95040.00;;;;8339498;28;20263;-72
2021/12/05 12:03:29;;;;;;;1.67;1.57;;;;;6.20;95043.00;;;;8340527;28;20846;-72
2021/12/05 12:07:35;;;;;;;11.23;1.13;;;;;6.20;95041.00;;;;8340895;28;20239;-73
2021/12/05 12:11:40;;;;;;;0.83;0.83;;;;;6.30;95044.00;;;;8332136;28;20730;-72
2021/12/05 12:15:45;;;;;;;0.77;0.73;;;;;6.40;95035.00;;;;8345428;28;20335;-72
2021/12/05 12:20:19;;;;;;;2.37;1.33;;;;;6.30;95045.00;;;;8335569;28;20231;-72
2021/12/05 12:24:26;;;;;;;0.87;0.87;;;;;6.30;95049.00;;;;8311304;28;20274;-73
2021/12/05 12:28:31;;;;;;;2.67;1.40;;;;;6.30;95050.00;;;;8328262;28;20237;-70
2021/12/05 12:32:38;;;;;;;1.43;1.43;;;;;6.20;95046.00;;;;8332653;28;20233;-71
2021/12/05 12:36:43;;;;;;;1.50;1.33;;;;;6.20;95060.00;;;;8339319;28;20269;-71
2021/12/05 12:40:49;;;;;;;1.53;1.43;;;;;6.10;95063.00;;;;8334472;28;20326;-70
2021/12/05 12:45:07;;;;;;;3.87;1.43;;;;;6.00;95060.00;;;;8344246;28;20268;-70
2021/12/05 12:49:34;;;;;;;1.47;1.37;;;;;5.90;95060.00;;;;8332312;28;20271;-70
2021/12/05 12:53:38;;;;;;;1.33;1.30;;;;;5.80;95065.00;;;;8315969;28;20259;-70
2021/12/05 12:57:42;;;;;;;2.77;2.60;;;;;5.80;95071.00;;;;8333330;28;20224;-71
2021/12/05 13:02:15;;;;;;;1.07;1.07;;;;;5.80;95052.00;;;;8333876;28;20250;-71
2021/12/05 13:10:41;;;;;;;0.87;0.87;;;;;5.80;95060.00;;;;8339026;28;20342;-71
2021/12/05 13:15:03;;;;;;;1.03;1.03;;;;;5.70;95065.00;;;;8353521;28;20235;-71
2021/12/05 13:19:12;;;;;;;2.83;1.53;;;;;5.70;95057.00;;;;8327471;28;20254;-71
2021/12/05 13:23:20;;;;;;;8.10;1.83;;;;;5.60;95071.00;;;;8335897;28;20610;-71
2021/12/05 13:27:27;;;;;;;1.90;1.80;;;;;5.70;95065.00;;;;8346948;28;20643;-71
2021/12/05 13:31:50;;;;;;;1.83;1.63;;;;;5.60;95062.00;;;;8347941;28;20254;-71
2021/12/05 13:35:58;;;;;;;1.53;1.43;;;;;5.60;95077.00;;;;8341832;28;20693;-71
2021/12/05 13:40:17;;;;;;;0.97;0.97;;;;;5.50;95066.00;;;;8346740;28;20301;-71
2021/12/05 13:44:20;;;;;;;7.43;1.77;;;;;5.40;95068.00;;;;8357855;28;20395;-71
2021/12/05 13:48:29;;;;;;;5.33;2.20;;;;;5.40;95070.00;;;;8369711;28;20264;-71
2021/12/05 13:52:39;;;;;;;1.03;1.03;;;;;5.30;95081.00;;;;8353980;28;20578;-71
2021/12/05 13:56:43;;;;;;;1.50;1.40;;;;;5.30;95084.00;;;;8354539;28;20251;-71
2021/12/05 14:00:51;;;;;;;1.80;1.70;;;;;5.20;95082.00;;;;8352518;28;20235;-71
2021/12/05 14:04:56;;;;;;;6.53;2.87;;;;;5.20;95086.00;;;;8336129;28;20239;-71
2021/12/05 14:09:06;;;;;;;0.83;0.83;;;;;5.10;95081.00;;;;8349585;28;20319;-71
2021/12/05 14:13:09;;;;;;;1.00;0.97;;;;;5.00;95086.00;;;;8329371;28;20299;-71
2021/12/05 14:17:17;;;;;;;1.83;1.73;;;;;4.90;95086.00;;;;8349745;28;20319;-74
2021/12/05 14:21:22;;;;;;;2.00;1.67;;;;;4.90;95095.00;;;;8349654;28;20238;-76
2021/12/05 14:25:29;;;;;;;2.97;1.23;;;;;4.90;95093.00;;;;8334498;28;20228;-75
2021/12/05 14:29:35;;;;;;;6.00;1.97;;;;;4.90;95095.00;;;;8339578;28;20261;-74
2021/12/05 14:33:49;;;;;;;3.70;1.77;;;;;4.80;95094.00;;;;8335815;28;20406;-75
2021/12/05 14:37:53;;;;;;;3.03;1.30;;;;;4.80;95098.00;;;;8342841;28;20247;-75
2021/12/05 14:42:01;;;;;;;1.83;1.53;;;;;4.70;95092.00;;;;8335399;28;20681;-75
2021/12/05 14:46:04;;;;;;;2.30;2.07;;;;;4.60;95099.00;;;;8340236;28;20266;-74
2021/12/05 14:50:12;;;;;;;2.40;2.17;;;;;4.60;95108.00;;;;8338521;28;20733;-75
2021/12/05 14:54:27;;;;;;;3.23;2.47;;;;;4.50;95106.00;;;;8334880;28;20709;-80
2021/12/05 14:58:32;;;;;;;1.50;1.40;;;;;4.40;95108.00;;;;8337194;28;20308;-80
2021/12/05 15:02:36;;;;;;;3.60;2.73;;;;;4.30;95113.00;;;;8337119;28;20692;-77
2021/12/05 15:06:43;;;;;;;2.97;2.70;;;;;4.20;95113.00;;;;8336101;28;20224;-77
2021/12/05 15:10:52;;;;;;;2.50;2.30;;;;;4.10;95123.00;;;;8314725;28;20228;-76
2021/12/05 15:15:02;;;;;;;1.47;1.40;;;;;4.00;95130.00;;;;8329939;28;20223;-79
2021/12/05 15:19:05;;;;;;;2.67;2.40;;;;;4.00;95130.00;;;;8333411;28;20260;-75
2021/12/05 15:23:10;;;;;;;1.90;1.77;;;;;3.90;95138.00;;;;8332126;28;20808;-76
2021/12/05 15:27:17;;;;;;;1.27;1.27;;;;;3.80;95146.00;;;;8339652;28;20237;-76
2021/12/05 15:31:24;;;;;;;4.77;1.87;;;;;3.80;95143.00;;;;8333836;28;20267;-78
2021/12/05 15:35:29;;;;;;;2.90;2.57;;;;;3.80;95145.00;;;;8328401;28;20228;-74
2021/12/05 15:39:32;;;;;;;2.53;2.33;;;;;3.70;95142.00;;;;8337369;28;20233;-76
2021/12/05 15:43:37;;;;;;;5.20;2.83;;;;;3.70;95147.00;;;;8331260;28;20686;-78
2021/12/05 15:47:45;;;;;;;1.70;1.60;;;;;3.60;95153.00;;;;8336063;28;20314;-73
2021/12/05 15:51:49;;;;;;;2.30;2.07;;;;;3.50;95153.00;;;;8337329;28;20238;-75
2021/12/05 15:56:06;;;;;;;1.08;1.08;;;;;3.50;95158.00;;;;5807842;28;10001418;-73
2021/12/05 16:00:33;;;;;;;1.60;1.50;;;;;3.50;95159.00;;;;6535817;28;23137;-71
2021/12/05 16:04:42;;;;;;;2.03;1.93;;;;;3.50;95156.00;;;;7477029;28;20613;-75
2021/12/05 16:08:49;;;;;;;2.17;2.07;;;;;3.50;95162.00;;;;8271761;28;20255;-73
2021/12/05 16:12:54;;;;;;;1.83;1.73;;;;;3.50;95159.00;;;;8266951;28;20904;-76
2021/12/05 16:16:58;;;;;;;1.87;1.80;;;;;3.40;95156.00;;;;8257617;28;20247;-74
2021/12/05 16:21:06;;;;;;;2.87;1.67;;;;;3.30;95155.00;;;;8278545;28;20238;-75
2021/12/05 16:25:20;;;;;;;1.70;1.30;;;;;3.20;95160.00;;;;8252829;28;21126;-75
2021/12/05 16:29:25;;;;;;;2.87;2.67;;;;;3.00;95173.00;;;;8261380;28;20261;-76
2021/12/05 16:33:31;;;;;;;2.10;1.97;;;;;2.90;95166.00;;;;8267224;28;20229;-76
2021/12/05 16:37:39;;;;;;;1.63;1.63;;;;;2.80;95164.00;;;;8268610;28;20260;-77
2021/12/05 16:41:45;;;;;;;2.23;2.00;;;;;2.70;95171.00;;;;8268273;28;20311;-75
2021/12/05 16:45:48;;;;;;;2.20;1.40;;;;;2.50;95176.00;;;;8264044;28;20307;-76
2021/12/05 16:49:55;;;;;;;5.00;3.07;;;;;2.50;95178.00;;;;8271900;28;20247;-75
2021/12/05 16:54:04;;;;;;;2.07;1.97;;;;;2.40;95180.00;;;;8255467;28;20346;-74
2021/12/05 16:58:13;;;;;;;2.67;1.60;;;;;2.30;95191.00;;;;8272480;28;20966;-75
2021/12/05 17:02:21;;;;;;;2.73;2.17;;;;;2.20;95185.00;;;;8262639;28;20246;-75
2021/12/05 17:06:24;;;;;;;3.40;3.10;;;;;2.30;95188.00;;;;8272382;28;20231;-73
2021/12/05 17:10:48;;;;;;;1.90;1.80;;;;;2.30;95196.00;;;;8264723;28;20330;-75
2021/12/05 17:14:51;;;;;;;2.70;2.27;;;;;2.50;95190.00;;;;8281586;28;20627;-75
2021/12/05 17:19:01;;;;;;;2.57;2.20;;;;;2.60;95201.00;;;;8272560;28;20255;-73
2021/12/05 17:23:09;;;;;;;3.33;2.10;;;;;2.70;95197.00;;;;8265004;28;20229;-74
2021/12/05 17:27:18;;;;;;;1.87;1.77;;;;;2.70;95210.00;;;;8263146;28;20233;-74
2021/12/05 17:31:30;;;;;;;6.63;2.27;;;;;2.80;95208.00;;;;8276766;28;20665;-74
2021/12/05 17:35:33;;;;;;;2.07;1.97;;;;;2.90;95214.00;;;;8266282;28;20688;-74
2021/12/05 17:39:39;;;;;;;1.03;1.03;;;;;3.00;95211.00;;;;8275522;28;20241;-75
2021/12/05 17:43:44;;;;;;;2.80;1.43;;;;;3.00;95216.00;;;;8273872;28;20223;-75
2021/12/05 17:47:47;;;;;;;3.90;2.33;;;;;3.00;95222.00;;;;8280768;28;20246;-72
2021/12/05 17:51:51;;;;;;;7.00;2.87;;;;;3.10;95232.00;;;;8271106;28;20847;-73
2021/12/05 17:55:59;;;;;;;3.63;2.77;;;;;3.10;95231.00;;;;8279146;28;20256;-72
2021/12/05 18:00:15;;;;;;;3.00;2.80;;;;;3.10;95229.00;;;;8278007;28;20343;-75
2021/12/05 18:04:18;;;;;;;3.17;2.40;;;;;3.20;95224.00;;;;8294077;28;20319;-76
2021/12/05 18:08:25;;;;;;;1.70;1.60;;;;;3.00;95236.00;;;;8283740;28;20231;-75
2021/12/05 18:12:35;;;;;;;53.43;6.77;;;;;2.90;95244.00;;;;8286866;28;20220;-74
2021/12/05 18:16:39;;;;;;;13.90;7.27;;;;;2.80;95239.00;;;;8294702;28;20261;-74
2021/12/05 18:20:44;;;;;;;8.67;3.77;;;;;2.80;95234.00;;;;8284425;28;20270;-74
2021/12/05 18:24:47;;;;;;;5.57;2.93;;;;;2.80;95235.00;;;;8290902;28;20318;-74
2021/12/05 18:28:51;;;;;;;7.30;2.87;;;;;2.70;95241.00;;;;8274674;28;20306;-74
2021/12/05 18:32:57;;;;;;;2.17;2.07;;;;;2.60;95248.00;;;;8279270;28;20767;-74
2021/12/05 18:37:04;;;;;;;2.27;2.07;;;;;2.50;95245.00;;;;8278437;28;20320;-74
2021/12/05 18:41:11;;;;;;;4.57;3.47;;;;;2.50;95245.00;;;;8290488;28;21100;-73
2021/12/05 18:45:21;;;;;;;8.33;4.10;;;;;2.30;95251.00;;;;8285554;28;20241;-73
2021/12/05 18:49:29;;;;;;;2.23;2.13;;;;;2.30;95251.00;;;;8284466;28;20316;-73
2021/12/05 18:53:32;;;;;;;6.13;2.80;;;;;2.20;95266.00;;;;8295313;28;20303;-74
2021/12/05 18:57:36;;;;;;;1.90;1.83;;;;;2.30;95262.00;;;;8282142;28;20238;-73
2021/12/05 19:06:10;;;;;;;27.67;5.27;;;;;2.30;95269.00;;;;8279253;28;20730;-74
2021/12/05 19:14:39;;;;;;;3.03;2.83;;;;;2.50;95276.00;;;;8288288;28;20235;-73
2021/12/05 19:18:42;;;;;;;1.53;1.47;;;;;2.50;95271.00;;;;8282152;28;20256;-74
2021/12/05 19:22:47;;;;;;;3.00;2.43;;;;;2.70;95275.00;;;;8293028;28;20310;-74
2021/12/05 19:26:53;;;;;;;2.27;2.17;;;;;2.70;95271.00;;;;8288051;28;20327;-74
2021/12/05 19:30:57;;;;;;;2.63;2.47;;;;;2.60;95278.00;;;;8285473;28;20322;-72
2021/12/05 19:35:01;;;;;;;9.53;3.63;;;;;2.70;95271.00;;;;8280006;28;20305;-73
2021/12/05 19:39:07;;;;;;;3.37;2.40;;;;;2.70;95275.00;;;;8290237;28;20264;-73
2021/12/05 19:43:12;;;;;;;1.77;1.60;;;;;2.70;95280.00;;;;8286814;28;20235;-72
2021/12/05 19:47:15;;;;;;;2.20;2.10;;;;;2.80;95281.00;;;;8297548;28;20849;-73
2021/12/05 19:51:20;;;;;;;1.10;1.10;;;;;2.70;95285.00;;;;8292031;28;20293;-73
2021/12/05 19:55:28;;;;;;;1.73;1.63;;;;;2.70;95284.00;;;;8288883;28;20332;-73
2021/12/05 19:59:32;;;;;;;3.13;1.63;;;;;2.70;95294.00;;;;8297547;28;20590;-72
2021/12/05 20:03:36;;;;;;;4.23;2.17;;;;;2.80;95303.00;;;;8292684;28;20268;-72
2021/12/05 20:07:40;;;;;;;4.70;2.37;;;;;2.80;95301.00;;;;8286034;28;20737;-72
2021/12/05 20:11:45;;;;;;;2.37;1.40;;;;;2.80;95304.00;;;;8283341;28;20734;-72
2021/12/05 20:15:49;;;;;;;0.93;0.93;;;;;2.80;95307.00;;;;8305312;28;20265;-73
2021/12/05 20:19:55;;;;;;;2.63;2.40;;;;;2.80;95297.00;;;;8278730;28;20233;-73
2021/12/05 20:23:59;;;;;;;2.07;1.90;;;;;2.80;95297.00;;;;8289290;28;20249;-72
2021/12/05 20:28:04;;;;;;;1.70;1.60;;;;;2.90;95299.00;;;;8295167;28;20266;-73
2021/12/05 20:32:07;;;;;;;2.13;1.87;;;;;3.00;95295.00;;;;8290426;28;20267;-72
2021/12/05 20:36:13;;;;;;;1.70;1.70;;;;;3.00;95309.00;;;;8268211;28;20698;-73
2021/12/05 20:40:17;;;;;;;2.20;2.00;;;;;3.10;95306.00;;;;8273429;28;20238;-73
2021/12/05 20:44:23;;;;;;;2.23;2.03;;;;;3.20;95311.00;;;;8273094;28;20339;-74
2021/12/05 20:48:27;;;;;;;8.10;2.53;;;;;3.20;95316.00;;;;8277237;28;20260;-74
2021/12/05 20:52:31;;;;;;;2.53;2.00;;;;;3.20;95311.00;;;;8285425;28;20255;-73
2021/12/05 20:56:39;;;;;;;2.40;1.87;;;;;3.20;95321.00;;;;8291956;28;20692;-72
2021/12/05 21:00:46;;;;;;;1.70;1.60;;;;;3.20;95316.00;;;;8283942;28;20316;-73
2021/12/05 21:04:49;;;;;;;1.67;1.67;;;;;3.10;95316.00;;;;8287310;28;20349;-73
2021/12/05 21:08:53;;;;;;;1.80;1.77;;;;;3.00;95323.00;;;;8291892;28;20240;-73
2021/12/05 21:12:57;;;;;;;5.10;2.00;;;;;3.00;95323.00;;;;8286335;28;20240;-73
2021/12/05 21:17:01;;;;;;;4.80;1.53;;;;;3.00;95312.00;;;;8286609;28;20252;-71
2021/12/05 21:21:07;;;;;;;1.93;1.93;;;;;3.10;95318.00;;;;8277575;28;20320;-73
2021/12/05 21:25:12;;;;;;;0.80;0.80;;;;;3.10;95309.00;;;;8281456;28;20321;-74
2021/12/05 21:29:18;;;;;;;2.20;2.00;;;;;3.10;95310.00;;;;8276681;28;20653;-76
2021/12/05 21:33:23;;;;;;;4.10;2.00;;;;;3.10;95327.00;;;;8275079;28;20679;-78
2021/12/05 21:37:27;;;;;;;3.60;1.53;;;;;3.10;95320.00;;;;8278244;28;20242;-82
2021/12/05 21:41:30;;;;;;;1.70;1.53;;;;;3.20;95327.00;;;;8278967;28;20314;-86
2021/12/05 21:45:34;;;;;;;3.50;2.40;;;;;3.20;95334.00;;;;8278270;28;20239;-81
2021/12/05 21:49:38;;;;;;;1.80;1.00;;;;;3.20;95341.00;;;;8284798;28;20262;-77
2021/12/05 21:53:46;;;;;;;2.57;2.37;;;;;3.20;95341.00;;;;8281449;28;20715;-79
2021/12/05 21:57:49;;;;;;;2.67;2.43;;;;;3.10;95354.00;;;;8280141;28;20231;-83
2021/12/05 22:01:52;;;;;;;4.07;1.13;;;;;3.00;95363.00;;;;8277947;28;20658;-85
2021/12/05 22:05:57;;;;;;;4.83;2.40;;;;;3.00;95366.00;;;;8276534;28;20235;-83
2021/12/05 22:10:01;;;;;;;4.53;2.70;;;;;2.90;95371.00;;;;8280486;28;20290;-88
2021/12/05 22:14:05;;;;;;;2.93;2.47;;;;;2.90;95374.00;;;;8273902;28;20264;-86
2021/12/05 22:18:11;;;;;;;2.33;2.23;;;;;2.90;95385.00;;;;8281332;28;20255;-85
2021/12/05 22:22:16;;;;;;;1.47;1.37;;;;;2.90;95385.00;;;;8278636;28;20223;-84
2021/12/05 22:26:20;;;;;;;1.67;1.57;;;;;3.00;95392.00;;;;8279023;28;20316;-87
2021/12/05 22:30:24;;;;;;;2.87;2.33;;;;;3.00;95398.00;;;;8280188;28;20256;-85
2021/12/05 22:34:28;;;;;;;3.83;2.47;;;;;3.10;95399.00;;;;8279118;28;20229;-85
2021/12/05 22:38:35;;;;;;;4.10;2.10;;;;;3.20;95411.00;;;;8279048;28;20265;-81
2021/12/05 22:42:39;;;;;;;2.53;2.33;;;;;3.20;95397.00;;;;8282618;28;20233;-79
2021/12/05 22:46:42;;;;;;;5.83;2.00;;;;;3.30;95408.00;;;;8283317;28;20728;-79
2021/12/05 22:50:45;;;;;;;1.43;1.33;;;;;3.30;95411.00;;;;8281144;28;20758;-80
2021/12/05 22:54:50;;;;;;;1.50;1.50;;;;;3.40;95402.00;;;;8272237;28;20259;-79
2021/12/05 22:58:54;;;;;;;3.60;2.27;;;;;3.40;95406.00;;;;8268492;28;20233;-80
2021/12/05 23:02:57;;;;;;;7.63;1.97;;;;;3.40;95407.00;;;;8274171;28;20320;-79
2021/12/05 23:07:01;;;;;;;2.57;1.90;;;;;3.40;95409.00;;;;8279254;28;20263;-79
2021/12/05 23:11:07;;;;;;;7.07;3.23;;;;;3.40;95416.00;;;;8274899;28;20255;-81
2021/12/05 23:15:10;;;;;;;2.40;2.20;;;;;3.40;95416.00;;;;8270849;28;20269;-79
2021/12/05 23:19:14;;;;;;;2.00;1.90;;;;;3.30;95426.00;;;;8271845;28;20312;-80
2021/12/05 23:23:17;;;;;;;4.63;3.00;;;;;3.20;95420.00;;;;8278967;28;20270;-81
2021/12/05 23:27:23;;;;;;;6.90;2.70;;;;;3.20;95430.00;;;;8270137;28;20258;-80
2021/12/05 23:31:37;;;;;;;3.33;1.87;;;;;3.10;95430.00;;;;8270245;28;20232;-81
2021/12/05 23:35:41;;;;;;;2.50;1.97;;;;;3.00;95426.00;;;;8267283;28;20637;-79
2021/12/05 23:39:44;;;;;;;5.17;2.73;;;;;3.00;95434.00;;;;8276091;28;20234;-79
2021/12/05 23:43:50;;;;;;;8.77;1.87;;;;;2.90;95434.00;;;;8272833;28;20257;-82
2021/12/05 23:47:53;;;;;;;3.03;2.30;;;;;2.70;95427.00;;;;8272025;28;20262;-80
2021/12/05 23:51:56;;;;;;;2.70;2.50;;;;;2.70;95433.00;;;;8269968;28;22143;-79
2021/12/05 23:56:01;;;;;;;2.83;2.30;;;;;2.70;95435.00;;;;8278465;28;20259;-82
